sensor_id;sensor_type;location;lat;lon;timestamp;P1;durP1;ratioP1;P2;durP2;ratioP2
3831;SDS011;12460;42.662;23.288;2023-05-14T00:05:46;4.87;;;4.43;;
3831;SDS011;12460;42.662;23.288;2023-05-14T00:20:51;8.77;;;5.50;;
3831;SDS011;12460;42.662;23.288;2023-05-14T00:35:57;4.60;;;4.30;;
3831;SDS011;12460;42.662;23.288;2023-05-14T00:51:02;5.53;;;5.03;;
3831;SDS011;12460;42.662;23.288;2023-05-14T01:36:48;5.10;;;4.70;;
3831;SDS011;12460;42.662;23.288;2023-05-14T01:51:54;4.50;;;4.20;;
3831;SDS011;12460;42.662;23.288;2023-05-14T02:06:59;4.93;;;4.53;;
3831;SDS011;12460;42.662;23.288;2023-05-14T02:22:04;4.67;;;4.27;;
3831;SDS011;12460;42.662;23.288;2023-05-14T02:37:08;5.00;;;4.60;;
3831;SDS011;12460;42.662;23.288;2023-05-14T02:52:13;5.03;;;4.53;;
3831;SDS011;12460;42.662;23.288;2023-05-14T03:07:17;4.90;;;4.50;;
3831;SDS011;12460;42.662;23.288;2023-05-14T03:22:21;4.60;;;4.23;;
3831;SDS011;12460;42.662;23.288;2023-05-14T03:37:26;4.83;;;4.43;;
3831;SDS011;12460;42.662;23.288;2023-05-14T03:52:31;5.10;;;4.63;;
3831;SDS011;12460;42.662;23.288;2023-05-14T04:07:37;5.00;;;4.57;;
3831;SDS011;12460;42.662;23.288;2023-05-14T04:22:41;4.57;;;4.23;;
3831;SDS011;12460;42.662;23.288;2023-05-14T04:37:46;5.63;;;5.13;;
3831;SDS011;12460;42.662;23.288;2023-05-14T04:52:51;5.90;;;4.90;;
3831;SDS011;12460;42.662;23.288;2023-05-14T05:07:58;4.63;;;4.23;;
3831;SDS011;12460;42.662;23.288;2023-05-14T05:23:02;5.73;;;5.23;;
3831;SDS011;12460;42.662;23.288;2023-05-14T05:38:06;6.13;;;5.53;;
3831;SDS011;12460;42.662;23.288;2023-05-14T05:53:11;6.50;;;5.87;;
3831;SDS011;12460;42.662;23.288;2023-05-14T06:08:16;8.63;;;7.00;;
3831;SDS011;12460;42.662;23.288;2023-05-14T06:23:19;8.07;;;7.27;;
3831;SDS011;12460;42.662;23.288;2023-05-14T06:38:24;10.57;;;6.80;;
3831;SDS011;12460;42.662;23.288;2023-05-14T06:53:29;8.53;;;7.00;;
3831;SDS011;12460;42.662;23.288;2023-05-14T07:08:34;8.37;;;7.57;;
3831;SDS011;12460;42.662;23.288;2023-05-14T07:23:39;11.80;;;7.80;;
3831;SDS011;12460;42.662;23.288;2023-05-14T07:38:44;8.60;;;7.20;;
3831;SDS011;12460;42.662;23.288;2023-05-14T07:53:48;10.00;;;6.67;;
3831;SDS011;12460;42.662;23.288;2023-05-14T08:08:53;7.90;;;7.10;;
3831;SDS011;12460;42.662;23.288;2023-05-14T08:23:58;9.07;;;8.13;;
3831;SDS011;12460;42.662;23.288;2023-05-14T08:39:03;12.17;;;9.60;;
3831;SDS011;12460;42.662;23.288;2023-05-14T08:54:10;8.80;;;7.73;;
3831;SDS011;12460;42.662;23.288;2023-05-14T09:09:21;7.70;;;6.57;;
3831;SDS011;12460;42.662;23.288;2023-05-14T09:24:26;8.60;;;7.70;;
3831;SDS011;12460;42.662;23.288;2023-05-14T09:39:32;9.60;;;8.07;;
3831;SDS011;12460;42.662;23.288;2023-05-14T09:54:39;8.97;;;8.03;;
3831;SDS011;12460;42.662;23.288;2023-05-14T10:09:44;7.83;;;7.00;;
3831;SDS011;12460;42.662;23.288;2023-05-14T10:24:49;7.70;;;6.90;;
3831;SDS011;12460;42.662;23.288;2023-05-14T10:40:00;6.87;;;6.27;;
3831;SDS011;12460;42.662;23.288;2023-05-14T10:55:11;6.73;;;6.03;;
3831;SDS011;12460;42.662;23.288;2023-05-14T11:10:17;8.73;;;7.93;;
3831;SDS011;12460;42.662;23.288;2023-05-14T11:25:22;7.60;;;6.90;;
3831;SDS011;12460;42.662;23.288;2023-05-14T11:40:28;7.43;;;6.73;;
3831;SDS011;12460;42.662;23.288;2023-05-14T11:55:35;11.03;;;9.17;;
3831;SDS011;12460;42.662;23.288;2023-05-14T12:10:43;10.27;;;9.27;;
3831;SDS011;12460;42.662;23.288;2023-05-14T12:25:50;11.70;;;10.03;;
3831;SDS011;12460;42.662;23.288;2023-05-14T12:40:55;10.63;;;8.90;;
3831;SDS011;12460;42.662;23.288;2023-05-14T12:56:00;8.70;;;7.90;;
3831;SDS011;12460;42.662;23.288;2023-05-14T13:11:05;8.87;;;7.97;;
3831;SDS011;12460;42.662;23.288;2023-05-14T13:26:11;8.30;;;7.50;;
3831;SDS011;12460;42.662;23.288;2023-05-14T13:41:15;10.00;;;9.00;;
3831;SDS011;12460;42.662;23.288;2023-05-14T13:56:20;14.43;;;10.60;;
3831;SDS011;12460;42.662;23.288;2023-05-14T14:11:25;11.93;;;10.53;;
3831;SDS011;12460;42.662;23.288;2023-05-14T14:26:29;14.13;;;11.13;;
3831;SDS011;12460;42.662;23.288;2023-05-14T14:41:33;14.67;;;13.17;;
3831;SDS011;12460;42.662;23.288;2023-05-14T14:56:38;14.40;;;12.80;;
3831;SDS011;12460;42.662;23.288;2023-05-14T15:11:43;13.60;;;12.20;;
3831;SDS011;12460;42.662;23.288;2023-05-14T15:26:47;13.03;;;10.83;;
3831;SDS011;12460;42.662;23.288;2023-05-14T15:41:54;15.20;;;12.17;;
3831;SDS011;12460;42.662;23.288;2023-05-14T15:56:58;14.83;;;12.03;;
3831;SDS011;12460;42.662;23.288;2023-05-14T16:12:04;16.40;;;13.87;;
3831;SDS011;12460;42.662;23.288;2023-05-14T16:27:09;17.67;;;14.53;;
3831;SDS011;12460;42.662;23.288;2023-05-14T16:42:14;16.70;;;12.93;;
3831;SDS011;12460;42.662;23.288;2023-05-14T16:57:19;15.70;;;14.00;;
3831;SDS011;12460;42.662;23.288;2023-05-14T17:12:23;16.43;;;13.90;;
3831;SDS011;12460;42.662;23.288;2023-05-14T17:27:28;13.07;;;11.40;;
3831;SDS011;12460;42.662;23.288;2023-05-14T17:42:35;12.70;;;8.87;;
3831;SDS011;12460;42.662;23.288;2023-05-14T17:57:39;13.37;;;10.70;;
3831;SDS011;12460;42.662;23.288;2023-05-14T18:12:45;10.10;;;9.10;;
3831;SDS011;12460;42.662;23.288;2023-05-14T18:27:49;10.93;;;8.73;;
3831;SDS011;12460;42.662;23.288;2023-05-14T18:42:54;14.80;;;12.10;;
3831;SDS011;12460;42.662;23.288;2023-05-14T18:57:59;15.80;;;12.33;;
3831;SDS011;12460;42.662;23.288;2023-05-14T19:13:03;18.00;;;15.03;;
3831;SDS011;12460;42.662;23.288;2023-05-14T19:28:08;16.60;;;13.37;;
3831;SDS011;12460;42.662;23.288;2023-05-14T19:43:12;14.40;;;11.67;;
3831;SDS011;12460;42.662;23.288;2023-05-14T19:58:17;21.70;;;17.73;;
3831;SDS011;12460;42.662;23.288;2023-05-14T20:13:21;19.50;;;16.30;;
3831;SDS011;12460;42.662;23.288;2023-05-14T20:28:27;20.07;;;16.60;;
3831;SDS011;12460;42.662;23.288;2023-05-14T20:43:31;21.40;;;17.57;;
3831;SDS011;12460;42.662;23.288;2023-05-14T20:58:36;21.37;;;18.10;;
3831;SDS011;12460;42.662;23.288;2023-05-14T21:13:41;20.90;;;16.63;;
3831;SDS011;12460;42.662;23.288;2023-05-14T21:28:47;23.30;;;18.67;;
3831;SDS011;12460;42.662;23.288;2023-05-14T21:43:51;20.60;;;17.37;;
3831;SDS011;12460;42.662;23.288;2023-05-14T21:58:56;20.00;;;15.70;;
3831;SDS011;12460;42.662;23.288;2023-05-14T22:14:01;11.47;;;10.20;;
3831;SDS011;12460;42.662;23.288;2023-05-14T22:29:06;8.47;;;7.40;;
3831;SDS011;12460;42.662;23.288;2023-05-14T22:44:10;7.50;;;6.70;;
3831;SDS011;12460;42.662;23.288;2023-05-14T22:59:16;7.60;;;6.80;;
3831;SDS011;12460;42.662;23.288;2023-05-14T23:14:19;7.07;;;6.40;;
3831;SDS011;12460;42.662;23.288;2023-05-14T23:29:23;8.90;;;8.00;;
3831;SDS011;12460;42.662;23.288;2023-05-14T23:44:27;8.87;;;7.97;;
3831;SDS011;12460;42.662;23.288;2023-05-14T23:59:32;8.20;;;7.40;;
